METAR Data
IDs: Format: Raw Decoded Include TAF

Data at: 0600 UTC 03 Jul 2022

METAR for:KRUQ (Salisbury/Rowan Cnty, NC, US)
Text:KRUQ 030555Z AUTO 00000KT 10SM CLR 22/21 A3001 RMK AO2 60001 T02150210 10296 20215 403230207
Temperature: 21.5°C ( 71°F)
Dewpoint: 21.0°C ( 70°F) [RH = 97%]
Pressure (altimeter):30.01 inches Hg (1016.3 mb)
Winds:calm
Visibility:10 or more sm (16+ km)
Ceiling:at least 12,000 feet AGL
Clouds:sky clear below 12,000 feet AGL
QC Flag:automated observation with no human augmentation

TAF for:KRUQ (Salisbury/Rowan Cnty, NC, US)
Text:No data found